createdAt,value
2022-12-09T00:00:01.857Z,21.40
2022-12-09T00:02:33.187Z,20.77
2022-12-09T00:05:01.529Z,15.90
2022-12-09T00:07:30.088Z,19.30
2022-12-09T00:09:58.465Z,20.47
2022-12-09T00:12:26.628Z,19.63
2022-12-09T00:14:54.803Z,20.93
2022-12-09T00:17:24.480Z,17.03
2022-12-09T00:19:52.702Z,19.63
2022-12-09T00:22:21.019Z,18.13
2022-12-09T00:24:49.331Z,17.97
2022-12-09T00:27:17.426Z,21.73
2022-12-09T00:29:45.977Z,22.33
2022-12-09T00:32:15.308Z,19.97
2022-12-09T00:34:45.680Z,17.47
2022-12-09T00:37:13.958Z,23.37
2022-12-09T00:39:42.340Z,18.27
2022-12-09T00:42:10.484Z,24.53
2022-12-09T00:44:39.525Z,18.50
2022-12-09T00:47:07.926Z,17.10
2022-12-09T00:49:36.196Z,20.03
2022-12-09T00:52:06.099Z,19.13
2022-12-09T00:54:34.569Z,16.53
2022-12-09T00:57:02.901Z,17.87
2022-12-09T00:59:31.329Z,18.00
2022-12-09T01:01:59.595Z,18.13
2022-12-09T01:04:28.059Z,19.13
2022-12-09T01:06:56.238Z,14.27
2022-12-09T01:09:25.970Z,19.53
2022-12-09T01:11:54.186Z,20.67
2022-12-09T01:14:22.545Z,20.10
2022-12-09T01:16:50.853Z,23.10
2022-12-09T01:19:19.287Z,17.93
2022-12-09T01:21:47.713Z,18.00
2022-12-09T01:24:16.506Z,20.97
2022-12-09T01:26:46.126Z,20.30
2022-12-09T01:29:16.161Z,16.23
2022-12-09T01:31:44.594Z,19.53
2022-12-09T01:34:13.365Z,17.20
2022-12-09T01:36:43.461Z,22.30
2022-12-09T01:39:12.558Z,17.20
2022-12-09T01:41:40.751Z,21.53
2022-12-09T01:44:13.459Z,23.73
2022-12-09T01:46:42.035Z,17.60
2022-12-09T01:49:15.113Z,18.00
2022-12-09T01:51:45.785Z,17.50
2022-12-09T01:54:16.926Z,15.73
2022-12-09T01:56:46.374Z,15.40
2022-12-09T01:59:17.154Z,19.70
2022-12-09T02:01:49.257Z,17.20
2022-12-09T02:04:18.757Z,17.50
2022-12-09T02:06:47.542Z,17.77
2022-12-09T02:09:18.893Z,17.30
2022-12-09T02:12:07.191Z,16.30
2022-12-09T02:14:41.610Z,18.10
2022-12-09T02:17:26.851Z,14.43
2022-12-09T02:20:05.568Z,15.03
2022-12-09T02:22:39.642Z,18.77
2022-12-09T02:25:20.609Z,14.90
2022-12-09T02:27:58.563Z,18.53
2022-12-09T02:30:39.126Z,17.17
2022-12-09T02:33:27.523Z,18.87
2022-12-09T02:36:00.381Z,19.80
2022-12-09T02:38:31.313Z,21.63
2022-12-09T02:41:03.383Z,15.90
2022-12-09T02:43:34.423Z,19.43
2022-12-09T02:46:04.781Z,17.83
2022-12-09T02:48:37.874Z,17.10
2022-12-09T02:51:10.766Z,18.33
2022-12-09T02:53:41.444Z,16.43
2022-12-09T02:56:11.587Z,17.27
2022-12-09T02:58:41.389Z,21.83
2022-12-09T03:01:22.044Z,21.20
2022-12-09T03:03:52.661Z,21.53
2022-12-09T03:06:27.153Z,19.43
2022-12-09T03:09:01.745Z,17.47
2022-12-09T03:11:31.153Z,21.33
2022-12-09T03:14:05.007Z,21.30
2022-12-09T03:16:36.622Z,23.33
2022-12-09T03:19:09.589Z,16.33
2022-12-09T03:21:44.261Z,22.07
2022-12-09T03:24:14.993Z,20.53
2022-12-09T03:26:44.360Z,20.93
2022-12-09T03:29:18.339Z,16.13
2022-12-09T03:31:48.233Z,19.50
2022-12-09T03:34:20.619Z,17.00
2022-12-09T03:36:53.167Z,20.40
2022-12-09T03:39:26.244Z,19.33
2022-12-09T03:41:57.927Z,17.77
2022-12-09T03:44:31.275Z,21.73
2022-12-09T03:47:00.185Z,18.93
2022-12-09T03:49:28.482Z,24.20
2022-12-09T03:52:03.578Z,18.00
2022-12-09T03:54:37.070Z,21.97
2022-12-09T03:57:05.938Z,21.63
2022-12-09T03:59:36.627Z,16.60
2022-12-09T04:02:07.148Z,21.73
2022-12-09T04:04:39.590Z,17.90
2022-12-09T04:07:09.807Z,18.97
2022-12-09T04:09:43.122Z,17.43
2022-12-09T04:12:11.769Z,19.43
2022-12-09T04:14:40.225Z,18.60
2022-12-09T04:17:08.691Z,17.43
2022-12-09T04:19:36.988Z,18.40
2022-12-09T04:22:06.190Z,14.93
2022-12-09T04:24:35.722Z,19.90
2022-12-09T04:27:04.207Z,20.27
2022-12-09T04:29:32.635Z,18.43
2022-12-09T04:32:01.263Z,22.67
2022-12-09T04:34:29.639Z,20.60
2022-12-09T04:36:58.107Z,24.30
2022-12-09T04:39:26.575Z,20.70
2022-12-09T04:41:56.468Z,20.63
2022-12-09T04:44:24.705Z,19.83
2022-12-09T04:46:53.238Z,18.03
2022-12-09T04:49:21.558Z,21.33
2022-12-09T04:51:49.752Z,19.90
2022-12-09T04:54:18.064Z,26.17
2022-12-09T04:56:46.270Z,18.83
2022-12-09T04:59:16.824Z,21.53
2022-12-09T05:01:45.075Z,24.87
2022-12-09T05:04:13.932Z,24.13
2022-12-09T05:06:42.516Z,24.37
2022-12-09T05:09:13.473Z,23.93
2022-12-09T05:11:42.159Z,28.23
2022-12-09T05:14:10.775Z,24.60
2022-12-09T05:16:40.606Z,24.47
2022-12-09T05:19:09.602Z,27.40
2022-12-09T05:21:37.950Z,23.47
2022-12-09T05:24:07.641Z,23.57
2022-12-09T05:26:36.202Z,21.80
2022-12-09T05:29:05.288Z,23.07
2022-12-09T05:31:34.102Z,23.97
2022-12-09T05:34:04.638Z,22.23
2022-12-09T05:36:35.942Z,23.90
2022-12-09T05:39:06.075Z,26.67
2022-12-09T05:41:34.413Z,23.17
2022-12-09T05:44:02.857Z,27.60
2022-12-09T05:46:31.333Z,22.17
2022-12-09T05:48:59.685Z,26.50
2022-12-09T05:51:31.235Z,26.90
2022-12-09T05:54:05.510Z,25.30
2022-12-09T05:56:34.535Z,25.90
2022-12-09T05:59:03.204Z,24.97
2022-12-09T06:01:31.913Z,27.70
2022-12-09T06:04:00.478Z,25.87
2022-12-09T06:06:31.639Z,25.10
2022-12-09T06:09:02.072Z,22.60
2022-12-09T06:11:32.306Z,22.60
2022-12-09T06:14:00.923Z,29.53
2022-12-09T06:16:29.911Z,26.73
2022-12-09T06:18:58.551Z,26.13
2022-12-09T06:21:27.317Z,29.97
2022-12-09T06:23:57.371Z,26.47
2022-12-09T06:26:27.779Z,32.47
2022-12-09T06:28:57.494Z,29.27
2022-12-09T06:31:26.131Z,34.20
2022-12-09T06:33:57.325Z,27.90
2022-12-09T06:36:27.006Z,29.60
2022-12-09T06:38:58.794Z,28.07
2022-12-09T06:41:29.426Z,27.80
2022-12-09T06:44:00.031Z,26.30
2022-12-09T06:46:29.516Z,27.17
2022-12-09T06:48:58.109Z,25.17
2022-12-09T06:51:27.509Z,29.27
2022-12-09T06:53:57.403Z,23.13
2022-12-09T06:56:26.223Z,26.83
2022-12-09T06:58:54.805Z,28.50
2022-12-09T07:01:24.972Z,31.33
2022-12-09T07:03:55.685Z,27.10
2022-12-09T07:06:28.066Z,28.67
2022-12-09T07:09:03.090Z,24.87
2022-12-09T07:11:31.923Z,30.43
2022-12-09T07:14:00.700Z,28.33
2022-12-09T07:16:29.540Z,28.90
2022-12-09T07:18:59.217Z,27.63
2022-12-09T07:21:28.335Z,28.50
2022-12-09T07:23:59.544Z,27.13
2022-12-09T07:26:32.743Z,29.17
2022-12-09T07:29:03.112Z,30.50
2022-12-09T07:31:31.877Z,33.87
2022-12-09T07:34:01.050Z,30.10
2022-12-09T07:36:31.540Z,25.33
2022-12-09T07:39:01.595Z,24.93
2022-12-09T07:41:33.976Z,27.60
2022-12-09T07:44:02.605Z,33.60
2022-12-09T07:46:31.526Z,30.40
2022-12-09T07:49:00.352Z,27.27
2022-12-09T07:51:29.530Z,27.20
2022-12-09T07:53:58.089Z,26.17
2022-12-09T07:56:28.640Z,28.10
2022-12-09T07:58:59.449Z,29.50
2022-12-09T08:01:30.962Z,29.03
2022-12-09T08:04:00.296Z,34.33
2022-12-09T08:06:31.307Z,28.20
2022-12-09T08:09:01.584Z,34.87
2022-12-09T08:11:32.156Z,29.73
2022-12-09T08:14:10.949Z,35.27
2022-12-09T08:16:41.972Z,27.00
2022-12-09T08:19:11.209Z,27.20
2022-12-09T08:21:40.035Z,29.83
2022-12-09T08:24:10.328Z,30.27
2022-12-09T08:26:42.202Z,30.00
2022-12-09T08:29:14.109Z,35.47
2022-12-09T08:31:44.067Z,30.73
2022-12-09T08:34:13.501Z,29.50
2022-12-09T08:36:43.580Z,30.50
2022-12-09T08:39:13.182Z,28.97
2022-12-09T08:41:41.985Z,27.37
2022-12-09T08:44:15.243Z,30.43
2022-12-09T08:46:47.332Z,34.20
2022-12-09T08:49:18.773Z,31.47
2022-12-09T08:51:48.384Z,26.33
2022-12-09T08:54:17.354Z,28.20
2022-12-09T08:56:47.544Z,27.30
2022-12-09T08:59:18.550Z,30.03
2022-12-09T09:01:47.412Z,25.30
2022-12-09T09:04:18.138Z,26.90
2022-12-09T09:06:50.165Z,25.40
2022-12-09T09:09:20.166Z,28.63
2022-12-09T09:11:48.902Z,29.00
2022-12-09T09:14:18.603Z,28.70
2022-12-09T09:16:47.511Z,31.50
2022-12-09T09:19:19.810Z,25.47
2022-12-09T09:21:49.277Z,25.93
2022-12-09T09:24:20.203Z,28.10
2022-12-09T09:26:50.477Z,26.50
2022-12-09T09:29:22.148Z,32.23
2022-12-09T09:31:54.647Z,26.53
2022-12-09T09:34:24.460Z,29.03
2022-12-09T09:36:53.466Z,26.23
2022-12-09T09:39:22.510Z,25.17
2022-12-09T09:41:54.465Z,26.23
2022-12-09T09:44:31.149Z,25.20
2022-12-09T09:47:00.609Z,23.47
2022-12-09T09:49:37.527Z,22.23
2022-12-09T09:52:11.503Z,26.93
2022-12-09T09:54:40.108Z,29.70
2022-12-09T09:57:15.791Z,22.57
2022-12-09T10:00:07.053Z,24.10
2022-12-09T10:02:59.731Z,24.97
2022-12-09T10:05:32.605Z,27.43
2022-12-09T10:08:20.336Z,25.03
2022-12-09T10:10:59.710Z,24.53
2022-12-09T10:13:45.155Z,25.70
2022-12-09T10:16:17.998Z,25.50
2022-12-09T10:19:07.351Z,25.77
2022-12-09T10:21:42.338Z,24.47
2022-12-09T10:24:22.181Z,22.23
2022-12-09T10:26:59.462Z,26.97
2022-12-09T10:29:54.193Z,23.43
2022-12-09T10:32:27.940Z,27.00
2022-12-09T10:34:57.329Z,21.80
2022-12-09T10:37:32.934Z,22.70
2022-12-09T10:40:16.043Z,25.63
2022-12-09T10:43:05.703Z,22.67
2022-12-09T10:46:08.387Z,22.20
2022-12-09T10:48:33.470Z,21.90
2022-12-09T10:51:05.364Z,21.93
2022-12-09T10:53:36.849Z,23.47
2022-12-09T10:56:05.893Z,21.20
2022-12-09T10:58:34.619Z,21.63
2022-12-09T11:01:07.867Z,21.27
2022-12-09T11:03:42.585Z,20.30
2022-12-09T11:06:23.251Z,17.90
2022-12-09T11:08:55.548Z,18.27
2022-12-09T11:11:40.528Z,19.90
2022-12-09T11:14:23.109Z,24.40
2022-12-09T11:16:54.598Z,16.60
2022-12-09T11:19:37.044Z,19.93
2022-12-09T11:22:16.904Z,18.90
2022-12-09T11:24:45.807Z,19.00
2022-12-09T11:27:28.963Z,16.47
2022-12-09T11:30:13.145Z,19.43
2022-12-09T11:32:56.732Z,17.47
2022-12-09T11:35:32.546Z,13.60
2022-12-09T11:38:18.161Z,18.83
2022-12-09T11:41:00.884Z,15.47
2022-12-09T11:43:42.533Z,14.87
2022-12-09T11:46:21.040Z,15.67
2022-12-09T11:48:54.946Z,14.20
2022-12-09T11:51:30.977Z,17.90
2022-12-09T11:54:03.940Z,15.73
2022-12-09T11:56:33.772Z,16.40
2022-12-09T11:59:04.936Z,16.13
2022-12-09T12:01:46.767Z,16.40
2022-12-09T12:04:19.609Z,19.73
2022-12-09T12:06:51.911Z,17.20
2022-12-09T12:09:25.002Z,15.80
2022-12-09T12:12:02.448Z,17.77
2022-12-09T12:14:31.697Z,16.97
2022-12-09T12:17:09.503Z,15.00
2022-12-09T12:19:41.306Z,19.73
2022-12-09T12:22:42.263Z,19.70
2022-12-09T12:25:30.731Z,14.70
2022-12-09T12:28:19.082Z,16.57
2022-12-09T12:30:52.149Z,18.53
2022-12-09T12:36:29.739Z,15.13
2022-12-09T12:39:13.460Z,16.20
2022-12-09T12:41:49.948Z,19.90
2022-12-09T12:44:50.033Z,16.50
2022-12-09T12:47:24.631Z,18.13
2022-12-09T12:50:14.063Z,14.00
2022-12-09T12:52:57.092Z,17.67
2022-12-09T12:55:49.968Z,15.80
2022-12-09T12:58:30.150Z,16.57
2022-12-09T13:01:04.641Z,17.77
2022-12-09T13:03:43.786Z,17.67
2022-12-09T13:06:14.795Z,15.67
2022-12-09T13:08:48.723Z,16.13
2022-12-09T13:11:22.725Z,14.70
2022-12-09T13:13:55.231Z,17.17
2022-12-09T13:16:28.623Z,17.00
2022-12-09T13:19:06.618Z,18.73
2022-12-09T13:21:35.575Z,16.80
2022-12-09T13:24:15.930Z,16.17
2022-12-09T13:26:51.102Z,16.73
2022-12-09T13:29:31.064Z,18.93
2022-12-09T13:32:08.886Z,19.63
2022-12-09T13:34:40.338Z,16.27
2022-12-09T13:37:35.068Z,17.97
2022-12-09T13:40:06.386Z,17.87
2022-12-09T13:42:56.585Z,19.83
2022-12-09T13:45:33.051Z,23.67
2022-12-09T13:48:09.557Z,25.93
2022-12-09T13:50:42.624Z,19.70
2022-12-09T13:53:26.319Z,19.67
2022-12-09T13:55:57.265Z,18.53
2022-12-09T13:59:00.136Z,17.70
2022-12-09T14:01:34.012Z,18.87
2022-12-09T14:04:11.537Z,19.57
2022-12-09T14:06:48.873Z,17.57
2022-12-09T14:09:27.346Z,20.17
2022-12-09T14:11:57.062Z,18.93
2022-12-09T14:14:51.831Z,19.80
2022-12-09T14:18:02.572Z,15.03
2022-12-09T14:20:33.994Z,16.90
2022-12-09T14:23:20.244Z,19.33
2022-12-09T14:26:01.236Z,16.13
2022-12-09T14:28:54.577Z,17.17
2022-12-09T14:31:59.325Z,17.53
2022-12-09T14:34:33.221Z,18.23
2022-12-09T14:37:20.215Z,19.17
2022-12-09T14:39:52.604Z,21.20
2022-12-09T14:42:30.704Z,17.20
2022-12-09T14:45:10.144Z,17.57
2022-12-09T14:47:43.055Z,14.70
2022-12-09T14:50:18.046Z,21.80
2022-12-09T14:52:54.636Z,16.07
2022-12-09T14:55:25.803Z,16.60
2022-12-09T14:57:55.788Z,15.07
2022-12-09T15:00:31.864Z,16.13
2022-12-09T15:05:59.171Z,17.10
2022-12-09T15:08:33.026Z,19.47
2022-12-09T15:11:05.338Z,14.77
2022-12-09T15:13:34.619Z,17.67
2022-12-09T15:16:03.054Z,20.00
2022-12-09T15:18:32.053Z,13.80
2022-12-09T15:21:02.870Z,17.37
2022-12-09T15:23:33.016Z,17.70
2022-12-09T15:26:04.780Z,19.97
2022-12-09T15:28:34.552Z,15.50
2022-12-09T15:31:05.141Z,18.93
2022-12-09T15:33:41.488Z,16.90
2022-12-09T15:36:15.331Z,18.10
2022-12-09T15:38:49.089Z,17.97
2022-12-09T15:41:36.299Z,18.13
2022-12-09T15:44:08.513Z,16.47
2022-12-09T15:46:40.104Z,17.27
2022-12-09T15:49:11.491Z,15.90
2022-12-09T15:51:44.383Z,20.27
2022-12-09T15:54:17.782Z,14.70
2022-12-09T15:56:48.758Z,17.70
2022-12-09T15:59:20.922Z,17.57
2022-12-09T16:01:52.249Z,16.07
2022-12-09T16:04:23.781Z,15.60
2022-12-09T16:06:55.884Z,22.90
2022-12-09T16:09:24.997Z,15.47
2022-12-09T16:11:54.687Z,16.57
2022-12-09T16:14:24.755Z,17.27
2022-12-09T16:16:56.918Z,15.90
2022-12-09T16:19:27.778Z,17.20
2022-12-09T16:22:00.442Z,15.87
2022-12-09T16:24:50.645Z,17.30
2022-12-09T16:27:21.318Z,17.33
2022-12-09T16:29:51.842Z,16.10
2022-12-09T16:32:30.348Z,16.90
2022-12-09T16:35:00.929Z,15.53
2022-12-09T16:37:37.767Z,17.50
2022-12-09T16:40:52.998Z,19.27
2022-12-09T16:43:23.364Z,14.10
2022-12-09T16:45:53.172Z,14.80
2022-12-09T16:48:23.212Z,20.00
2022-12-09T16:50:55.246Z,16.37
2022-12-09T16:53:26.842Z,16.87
2022-12-09T16:55:56.862Z,14.73
2022-12-09T16:58:25.098Z,14.13
2022-12-09T17:00:53.683Z,17.60
2022-12-09T17:03:32.919Z,15.30
2022-12-09T17:06:02.316Z,15.23
2022-12-09T17:08:32.112Z,15.23
2022-12-09T17:11:00.578Z,16.80
2022-12-09T17:13:29.351Z,15.60
2022-12-09T17:15:58.658Z,16.03
2022-12-09T17:18:27.029Z,23.40
2022-12-09T17:21:01.454Z,18.30
2022-12-09T17:23:36.086Z,19.33
2022-12-09T17:26:09.563Z,15.87
2022-12-09T17:28:38.176Z,15.43
2022-12-09T17:31:09.630Z,14.63
2022-12-09T17:33:38.314Z,14.63
2022-12-09T17:36:07.423Z,16.03
2022-12-09T17:38:37.285Z,15.67
2022-12-09T17:41:06.875Z,14.43
2022-12-09T17:43:35.456Z,15.90
2022-12-09T17:46:05.743Z,18.50
2022-12-09T17:48:35.358Z,16.87
2022-12-09T17:51:07.813Z,16.63
2022-12-09T17:53:38.275Z,19.13
2022-12-09T17:56:08.173Z,17.73
2022-12-09T17:58:37.128Z,18.10
2022-12-09T18:01:05.894Z,17.77
2022-12-09T18:03:54.869Z,18.87
2022-12-09T18:06:22.311Z,17.27
2022-12-09T18:08:51.881Z,18.20
2022-12-09T18:11:21.904Z,20.13
2022-12-09T18:13:51.820Z,15.80
2022-12-09T18:16:20.714Z,15.10
2022-12-09T18:18:48.910Z,19.80
2022-12-09T18:21:19.573Z,17.10
2022-12-09T18:23:52.730Z,17.73
2022-12-09T18:26:25.748Z,17.57
2022-12-09T18:28:57.526Z,17.47
2022-12-09T18:31:26.108Z,17.17
2022-12-09T18:33:54.611Z,16.60
2022-12-09T18:36:26.448Z,18.47
2022-12-09T18:38:58.187Z,17.33
2022-12-09T18:41:29.634Z,17.50
2022-12-09T18:43:59.944Z,19.07
2022-12-09T18:46:30.714Z,15.70
2022-12-09T18:49:01.798Z,20.23
2022-12-09T18:51:31.381Z,17.50
2022-12-09T18:54:01.996Z,17.07
2022-12-09T18:56:31.581Z,18.40
2022-12-09T18:59:08.745Z,17.80
2022-12-09T19:01:40.620Z,18.60
2022-12-09T19:04:12.689Z,20.03
2022-12-09T19:06:45.423Z,20.27
2022-12-09T19:09:17.638Z,20.27
2022-12-09T19:11:48.314Z,20.17
2022-12-09T19:14:17.771Z,20.70
2022-12-09T19:16:46.571Z,21.07
2022-12-09T19:19:16.609Z,20.50
2022-12-09T19:21:45.953Z,23.23
2022-12-09T19:24:17.347Z,18.80
2022-12-09T19:26:46.063Z,21.60
2022-12-09T19:29:15.521Z,21.90
2022-12-09T19:31:45.536Z,20.23
2022-12-09T19:34:16.247Z,19.43
2022-12-09T19:36:46.230Z,21.97
2022-12-09T19:39:16.898Z,19.63
2022-12-09T19:41:46.196Z,19.97
2022-12-09T19:44:30.938Z,20.33
2022-12-09T19:47:05.130Z,18.27
2022-12-09T19:49:33.488Z,20.80
2022-12-09T19:52:01.689Z,21.97
2022-12-09T19:54:31.315Z,21.83
2022-12-09T19:56:59.501Z,21.07
2022-12-09T19:59:28.412Z,22.00
2022-12-09T20:01:56.722Z,22.13
2022-12-09T20:07:14.833Z,25.17
2022-12-09T20:09:44.522Z,22.10
2022-12-09T20:12:12.748Z,23.27
2022-12-09T20:14:41.033Z,23.47
2022-12-09T20:17:09.228Z,23.57
2022-12-09T20:19:37.608Z,21.43
2022-12-09T20:22:06.214Z,25.30
2022-12-09T20:24:34.357Z,26.97
2022-12-09T20:27:03.901Z,23.13
2022-12-09T20:29:37.310Z,23.60
2022-12-09T20:32:06.747Z,25.87
2022-12-09T20:34:35.380Z,23.73
2022-12-09T20:37:03.735Z,23.93
2022-12-09T20:39:31.960Z,27.60
2022-12-09T20:42:00.324Z,25.70
2022-12-09T20:44:32.278Z,29.50
2022-12-09T20:47:00.521Z,25.47
2022-12-09T20:49:29.870Z,24.67
2022-12-09T20:51:58.587Z,22.20
2022-12-09T20:54:26.899Z,27.30
2022-12-09T20:56:55.247Z,30.00
2022-12-09T20:59:23.549Z,26.30
2022-12-09T21:01:54.203Z,27.77
2022-12-09T21:04:22.665Z,26.00
2022-12-09T21:06:54.146Z,27.93
2022-12-09T21:09:27.027Z,27.83
2022-12-09T21:11:55.253Z,27.77
2022-12-09T21:14:28.134Z,27.87
2022-12-09T21:17:02.157Z,24.40
2022-12-09T21:19:32.369Z,30.07
2022-12-09T21:22:00.800Z,32.03
2022-12-09T21:24:28.996Z,28.13
2022-12-09T21:26:57.265Z,29.50
2022-12-09T21:29:31.665Z,34.37
2022-12-09T21:32:02.108Z,40.27
2022-12-09T21:34:30.740Z,35.77
2022-12-09T21:36:59.182Z,24.90
2022-12-09T21:39:28.854Z,26.20
2022-12-09T21:41:57.457Z,30.87
2022-12-09T21:44:27.182Z,32.23
2022-12-09T21:46:55.421Z,39.33
2022-12-09T21:49:25.266Z,41.83
2022-12-09T21:51:53.486Z,45.43
2022-12-09T21:54:21.989Z,52.53
2022-12-09T21:56:50.141Z,49.37
2022-12-09T21:59:18.446Z,43.03
2022-12-09T22:01:46.867Z,31.80
2022-12-09T22:04:17.200Z,36.80
2022-12-09T22:06:48.323Z,50.30
2022-12-09T22:09:17.891Z,55.87
2022-12-09T22:11:48.094Z,29.93
2022-12-09T22:14:16.671Z,29.90
2022-12-09T22:16:46.799Z,26.67
2022-12-09T22:19:16.910Z,25.90
2022-12-09T22:21:45.027Z,27.67
2022-12-09T22:24:15.360Z,26.40
2022-12-09T22:26:44.478Z,27.07
2022-12-09T22:29:13.938Z,33.13
2022-12-09T22:31:43.318Z,28.97
2022-12-09T22:34:13.590Z,27.90
2022-12-09T22:36:43.004Z,28.17
2022-12-09T22:39:15.591Z,26.57
2022-12-09T22:41:45.770Z,30.67
2022-12-09T22:44:15.310Z,27.73
2022-12-09T22:46:43.919Z,28.20
2022-12-09T22:49:14.089Z,30.87
2022-12-09T22:51:43.000Z,31.20
2022-12-09T22:54:11.418Z,28.60
2022-12-09T22:56:42.774Z,22.80
2022-12-09T22:59:11.378Z,28.70
2022-12-09T23:01:39.578Z,24.97
2022-12-09T23:04:08.902Z,28.37
2022-12-09T23:06:38.481Z,32.00
2022-12-09T23:09:07.778Z,27.80
2022-12-09T23:11:37.093Z,27.03
2022-12-09T23:14:06.896Z,30.70
2022-12-09T23:16:35.107Z,27.60
2022-12-09T23:19:03.493Z,25.73
2022-12-09T23:21:33.922Z,27.77
2022-12-09T23:24:04.113Z,29.57
2022-12-09T23:26:34.023Z,28.20
2022-12-09T23:29:03.110Z,31.03
2022-12-09T23:31:34.460Z,33.90
2022-12-09T23:34:04.344Z,30.77
2022-12-09T23:36:34.680Z,30.33
2022-12-09T23:39:04.646Z,32.87
2022-12-09T23:41:32.769Z,30.67
2022-12-09T23:44:00.912Z,29.70
2022-12-09T23:46:30.523Z,28.67
2022-12-09T23:49:00.119Z,27.87
2022-12-09T23:51:29.842Z,30.30
2022-12-09T23:54:00.551Z,30.60
2022-12-09T23:56:30.550Z,32.23
2022-12-09T23:59:01.441Z,27.67
